sensor_id;sensor_type;location;lat;lon;timestamp;temperature;humidity
45108;DHT22;30869;51.188;6.556;2022-08-19T05:03:00;20.80;98.40
45108;DHT22;30869;51.188;6.556;2022-08-19T05:05:26;21.10;97.80
45108;DHT22;30869;51.188;6.556;2022-08-19T05:07:52;21.60;97.40
45108;DHT22;30869;51.188;6.556;2022-08-19T05:10:18;21.50;97.10
45108;DHT22;30869;51.188;6.556;2022-08-19T05:12:44;21.60;96.70
45108;DHT22;30869;51.188;6.556;2022-08-19T05:15:09;21.70;96.60
45108;DHT22;30869;51.188;6.556;2022-08-19T05:17:35;21.80;96.80
45108;DHT22;30869;51.188;6.556;2022-08-19T05:20:02;21.80;96.30
45108;DHT22;30869;51.188;6.556;2022-08-19T05:22:47;21.80;96.20
45108;DHT22;30869;51.188;6.556;2022-08-19T05:25:18;21.80;96.20
45108;DHT22;30869;51.188;6.556;2022-08-19T05:27:44;21.80;96.20
45108;DHT22;30869;51.188;6.556;2022-08-19T05:30:11;21.70;96.10
45108;DHT22;30869;51.188;6.556;2022-08-19T05:32:38;21.70;97.10
45108;DHT22;30869;51.188;6.556;2022-08-19T05:35:05;20.90;99.90
45108;DHT22;30869;51.188;6.556;2022-08-19T05:37:31;20.60;99.90
45108;DHT22;30869;51.188;6.556;2022-08-19T05:39:57;20.50;99.90
45108;DHT22;30869;51.188;6.556;2022-08-19T05:42:23;20.20;99.90
45108;DHT22;30869;51.188;6.556;2022-08-19T05:44:49;20.60;99.90
45108;DHT22;30869;51.188;6.556;2022-08-19T05:47:15;20.90;99.80
45108;DHT22;30869;51.188;6.556;2022-08-19T05:49:41;21.20;99.30
45108;DHT22;30869;51.188;6.556;2022-08-19T05:52:10;21.40;98.60
45108;DHT22;30869;51.188;6.556;2022-08-19T05:54:38;21.50;98.20
45108;DHT22;30869;51.188;6.556;2022-08-19T05:57:06;21.60;98.00
45108;DHT22;30869;51.188;6.556;2022-08-19T05:59:32;21.70;97.90
45108;DHT22;30869;51.188;6.556;2022-08-19T06:01:58;21.60;97.70
45108;DHT22;30869;51.188;6.556;2022-08-19T06:04:24;21.80;97.40
45108;DHT22;30869;51.188;6.556;2022-08-19T06:06:52;21.90;97.50
45108;DHT22;30869;51.188;6.556;2022-08-19T06:09:20;21.80;97.90
45108;DHT22;30869;51.188;6.556;2022-08-19T06:11:51;21.70;97.90
45108;DHT22;30869;51.188;6.556;2022-08-19T06:14:23;21.70;98.50
45108;DHT22;30869;51.188;6.556;2022-08-19T06:16:49;21.80;97.70
45108;DHT22;30869;51.188;6.556;2022-08-19T06:19:18;21.80;97.50
45108;DHT22;30869;51.188;6.556;2022-08-19T06:21:46;21.80;98.30
45108;DHT22;30869;51.188;6.556;2022-08-19T06:24:16;21.80;97.50
45108;DHT22;30869;51.188;6.556;2022-08-19T06:26:47;21.90;99.60
45108;DHT22;30869;51.188;6.556;2022-08-19T06:29:14;21.80;97.70
45108;DHT22;30869;51.188;6.556;2022-08-19T06:31:46;21.70;97.30
45108;DHT22;30869;51.188;6.556;2022-08-19T06:34:12;21.90;98.50
45108;DHT22;30869;51.188;6.556;2022-08-19T06:36:42;21.90;97.20
45108;DHT22;30869;51.188;6.556;2022-08-19T06:39:19;21.90;99.90
45108;DHT22;30869;51.188;6.556;2022-08-19T06:41:48;21.80;98.50
45108;DHT22;30869;51.188;6.556;2022-08-19T06:44:17;21.80;99.90
45108;DHT22;30869;51.188;6.556;2022-08-19T06:46:43;21.70;99.90
45108;DHT22;30869;51.188;6.556;2022-08-19T06:49:09;21.60;99.40
45108;DHT22;30869;51.188;6.556;2022-08-19T06:51:43;21.60;99.90
45108;DHT22;30869;51.188;6.556;2022-08-19T06:54:09;21.60;99.90
45108;DHT22;30869;51.188;6.556;2022-08-19T06:56:35;21.60;98.90
45108;DHT22;30869;51.188;6.556;2022-08-19T06:59:09;21.60;99.90
45108;DHT22;30869;51.188;6.556;2022-08-19T07:01:46;21.50;99.90
45108;DHT22;30869;51.188;6.556;2022-08-19T07:04:14;21.70;99.90
45108;DHT22;30869;51.188;6.556;2022-08-19T07:06:41;21.80;99.50
45108;DHT22;30869;51.188;6.556;2022-08-19T07:09:08;21.90;99.90
45108;DHT22;30869;51.188;6.556;2022-08-19T07:11:34;22.40;99.90
45108;DHT22;30869;51.188;6.556;2022-08-19T07:14:00;22.30;99.90
45108;DHT22;30869;51.188;6.556;2022-08-19T07:16:27;22.00;99.90
45108;DHT22;30869;51.188;6.556;2022-08-19T07:18:53;21.90;99.90
45108;DHT22;30869;51.188;6.556;2022-08-19T07:21:25;21.80;99.90
45108;DHT22;30869;51.188;6.556;2022-08-19T07:23:56;21.50;99.90
45108;DHT22;30869;51.188;6.556;2022-08-19T07:26:28;21.70;99.90
45108;DHT22;30869;51.188;6.556;2022-08-19T07:28:55;21.50;99.90
45108;DHT22;30869;51.188;6.556;2022-08-19T07:31:23;21.60;99.90
45108;DHT22;30869;51.188;6.556;2022-08-19T07:33:50;21.70;99.90
45108;DHT22;30869;51.188;6.556;2022-08-19T07:36:20;21.70;99.70
45108;DHT22;30869;51.188;6.556;2022-08-19T07:38:49;21.70;99.90
45108;DHT22;30869;51.188;6.556;2022-08-19T07:41:19;21.90;99.90
45108;DHT22;30869;51.188;6.556;2022-08-19T07:43:45;22.10;99.90
45108;DHT22;30869;51.188;6.556;2022-08-19T07:46:11;22.40;99.90
45108;DHT22;30869;51.188;6.556;2022-08-19T07:48:39;22.50;99.80
45108;DHT22;30869;51.188;6.556;2022-08-19T07:51:07;22.60;99.90
45108;DHT22;30869;51.188;6.556;2022-08-19T07:53:34;22.50;99.60
45108;DHT22;30869;51.188;6.556;2022-08-19T07:56:01;22.50;99.90
45108;DHT22;30869;51.188;6.556;2022-08-19T07:58:38;22.60;99.90
45108;DHT22;30869;51.188;6.556;2022-08-19T08:01:06;22.60;99.90
45108;DHT22;30869;51.188;6.556;2022-08-19T08:03:32;22.60;99.90
45108;DHT22;30869;51.188;6.556;2022-08-19T08:06:16;22.60;98.50
45108;DHT22;30869;51.188;6.556;2022-08-19T08:09:03;22.70;99.10
45108;DHT22;30869;51.188;6.556;2022-08-19T08:14:18;22.30;99.40
45108;DHT22;30869;51.188;6.556;2022-08-19T08:16:45;22.20;98.60
45108;DHT22;30869;51.188;6.556;2022-08-19T08:19:11;22.20;99.80
45108;DHT22;30869;51.188;6.556;2022-08-19T08:21:38;22.20;99.90
45108;DHT22;30869;51.188;6.556;2022-08-19T08:24:04;22.20;99.50
45108;DHT22;30869;51.188;6.556;2022-08-19T08:26:30;22.20;99.90
45108;DHT22;30869;51.188;6.556;2022-08-19T08:28:55;22.30;99.60
45108;DHT22;30869;51.188;6.556;2022-08-19T08:31:21;22.50;99.90
45108;DHT22;30869;51.188;6.556;2022-08-19T08:33:49;22.90;99.10
45108;DHT22;30869;51.188;6.556;2022-08-19T08:36:14;23.00;97.20
45108;DHT22;30869;51.188;6.556;2022-08-19T08:38:41;23.10;97.50
45108;DHT22;30869;51.188;6.556;2022-08-19T08:41:18;23.20;97.10
45108;DHT22;30869;51.188;6.556;2022-08-19T08:43:48;23.20;95.50
45108;DHT22;30869;51.188;6.556;2022-08-19T08:46:47;23.30;96.70
45108;DHT22;30869;51.188;6.556;2022-08-19T08:51:46;23.00;96.80
45108;DHT22;30869;51.188;6.556;2022-08-19T08:54:18;23.00;97.10
45108;DHT22;30869;51.188;6.556;2022-08-19T08:56:45;23.00;97.00
45108;DHT22;30869;51.188;6.556;2022-08-19T08:59:23;23.00;97.20
45108;DHT22;30869;51.188;6.556;2022-08-19T09:01:50;22.90;96.30
45108;DHT22;30869;51.188;6.556;2022-08-19T09:04:16;22.90;96.80
45108;DHT22;30869;51.188;6.556;2022-08-19T09:10:17;23.20;95.70
45108;DHT22;30869;51.188;6.556;2022-08-19T09:13:04;23.50;94.90
45108;DHT22;30869;51.188;6.556;2022-08-19T09:15:45;23.50;94.50
45108;DHT22;30869;51.188;6.556;2022-08-19T09:18:13;23.70;95.30
45108;DHT22;30869;51.188;6.556;2022-08-19T09:20:39;23.50;95.40
45108;DHT22;30869;51.188;6.556;2022-08-19T09:23:05;23.60;94.90
45108;DHT22;30869;51.188;6.556;2022-08-19T09:25:31;23.60;95.30
45108;DHT22;30869;51.188;6.556;2022-08-19T09:28:00;23.60;94.90
45108;DHT22;30869;51.188;6.556;2022-08-19T09:30:31;23.60;94.90
45108;DHT22;30869;51.188;6.556;2022-08-19T09:32:58;23.70;95.30
45108;DHT22;30869;51.188;6.556;2022-08-19T09:35:25;23.60;94.30
45108;DHT22;30869;51.188;6.556;2022-08-19T09:37:52;23.40;94.60
45108;DHT22;30869;51.188;6.556;2022-08-19T09:40:19;23.30;95.20
45108;DHT22;30869;51.188;6.556;2022-08-19T09:42:46;23.20;94.40
45108;DHT22;30869;51.188;6.556;2022-08-19T09:45:13;23.40;95.30
45108;DHT22;30869;51.188;6.556;2022-08-19T09:47:41;23.40;95.30
45108;DHT22;30869;51.188;6.556;2022-08-19T09:50:09;23.50;95.10
45108;DHT22;30869;51.188;6.556;2022-08-19T09:52:35;23.60;94.20
45108;DHT22;30869;51.188;6.556;2022-08-19T09:55:03;23.70;94.40
45108;DHT22;30869;51.188;6.556;2022-08-19T09:57:29;23.70;94.70
45108;DHT22;30869;51.188;6.556;2022-08-19T09:59:54;23.70;95.20
45108;DHT22;30869;51.188;6.556;2022-08-19T10:02:20;23.70;95.00
45108;DHT22;30869;51.188;6.556;2022-08-19T10:04:46;23.60;94.50
45108;DHT22;30869;51.188;6.556;2022-08-19T10:07:30;23.60;95.00
45108;DHT22;30869;51.188;6.556;2022-08-19T10:09:55;23.60;95.30
45108;DHT22;30869;51.188;6.556;2022-08-19T10:12:22;23.60;95.60
45108;DHT22;30869;51.188;6.556;2022-08-19T10:14:47;23.60;94.80
45108;DHT22;30869;51.188;6.556;2022-08-19T10:17:13;23.50;95.60
45108;DHT22;30869;51.188;6.556;2022-08-19T10:19:40;23.50;95.60
45108;DHT22;30869;51.188;6.556;2022-08-19T10:22:06;23.50;94.80
45108;DHT22;30869;51.188;6.556;2022-08-19T10:24:35;23.50;95.10
45108;DHT22;30869;51.188;6.556;2022-08-19T10:27:02;23.50;95.50
45108;DHT22;30869;51.188;6.556;2022-08-19T10:29:31;23.50;94.20
45108;DHT22;30869;51.188;6.556;2022-08-19T10:32:00;23.70;95.70
45108;DHT22;30869;51.188;6.556;2022-08-19T10:34:27;23.50;95.20
45108;DHT22;30869;51.188;6.556;2022-08-19T10:36:52;23.50;94.10
45108;DHT22;30869;51.188;6.556;2022-08-19T10:39:18;23.60;94.10
45108;DHT22;30869;51.188;6.556;2022-08-19T10:41:44;23.60;94.60
45108;DHT22;30869;51.188;6.556;2022-08-19T10:44:12;23.60;94.40
45108;DHT22;30869;51.188;6.556;2022-08-19T10:46:40;23.60;94.20
45108;DHT22;30869;51.188;6.556;2022-08-19T10:49:09;23.60;93.90
45108;DHT22;30869;51.188;6.556;2022-08-19T10:51:38;23.50;94.60
45108;DHT22;30869;51.188;6.556;2022-08-19T10:54:22;23.60;94.40
45108;DHT22;30869;51.188;6.556;2022-08-19T10:56:48;23.60;94.50
45108;DHT22;30869;51.188;6.556;2022-08-19T10:59:20;23.70;94.30
45108;DHT22;30869;51.188;6.556;2022-08-19T11:01:48;23.80;94.00
45108;DHT22;30869;51.188;6.556;2022-08-19T11:04:14;23.70;93.80
45108;DHT22;30869;51.188;6.556;2022-08-19T11:06:46;23.90;94.10
45108;DHT22;30869;51.188;6.556;2022-08-19T11:09:31;23.80;93.10
45108;DHT22;30869;51.188;6.556;2022-08-19T11:12:02;23.80;93.90
45108;DHT22;30869;51.188;6.556;2022-08-19T11:14:27;23.90;93.80
45108;DHT22;30869;51.188;6.556;2022-08-19T11:16:56;23.90;93.70
45108;DHT22;30869;51.188;6.556;2022-08-19T11:19:22;24.00;94.00
45108;DHT22;30869;51.188;6.556;2022-08-19T11:21:50;24.00;93.40
45108;DHT22;30869;51.188;6.556;2022-08-19T11:24:24;24.00;93.30
45108;DHT22;30869;51.188;6.556;2022-08-19T11:26:52;24.00;93.00
45108;DHT22;30869;51.188;6.556;2022-08-19T11:29:22;23.90;93.10
45108;DHT22;30869;51.188;6.556;2022-08-19T11:31:51;24.00;93.30
45108;DHT22;30869;51.188;6.556;2022-08-19T11:34:24;24.10;92.50
45108;DHT22;30869;51.188;6.556;2022-08-19T11:36:51;24.00;92.40
45108;DHT22;30869;51.188;6.556;2022-08-19T11:39:19;24.00;92.30
45108;DHT22;30869;51.188;6.556;2022-08-19T11:41:46;23.90;91.80
45108;DHT22;30869;51.188;6.556;2022-08-19T11:44:11;23.90;93.10
45108;DHT22;30869;51.188;6.556;2022-08-19T11:46:39;23.90;93.30
45108;DHT22;30869;51.188;6.556;2022-08-19T11:49:06;23.80;92.20
45108;DHT22;30869;51.188;6.556;2022-08-19T11:51:33;23.90;91.80
45108;DHT22;30869;51.188;6.556;2022-08-19T11:53:59;23.90;92.30
45108;DHT22;30869;51.188;6.556;2022-08-19T11:56:26;23.80;92.20
45108;DHT22;30869;51.188;6.556;2022-08-19T11:58:52;23.90;91.70
45108;DHT22;30869;51.188;6.556;2022-08-19T12:01:20;24.10;91.80
45108;DHT22;30869;51.188;6.556;2022-08-19T12:03:48;24.00;92.10
45108;DHT22;30869;51.188;6.556;2022-08-19T12:06:16;24.20;91.80
45108;DHT22;30869;51.188;6.556;2022-08-19T12:08:42;24.20;91.90
45108;DHT22;30869;51.188;6.556;2022-08-19T12:11:09;24.60;91.50
45108;DHT22;30869;51.188;6.556;2022-08-19T12:13:36;24.50;90.40
45108;DHT22;30869;51.188;6.556;2022-08-19T12:16:32;24.50;88.60
45108;DHT22;30869;51.188;6.556;2022-08-19T12:18:58;24.60;90.80
45108;DHT22;30869;51.188;6.556;2022-08-19T12:21:29;24.40;89.60
45108;DHT22;30869;51.188;6.556;2022-08-19T12:23:56;24.30;90.50
45108;DHT22;30869;51.188;6.556;2022-08-19T12:26:23;24.20;91.10
45108;DHT22;30869;51.188;6.556;2022-08-19T12:28:49;24.40;90.20
45108;DHT22;30869;51.188;6.556;2022-08-19T12:31:15;24.70;88.30
45108;DHT22;30869;51.188;6.556;2022-08-19T12:33:42;24.70;87.50
45108;DHT22;30869;51.188;6.556;2022-08-19T12:36:10;24.80;87.50
45108;DHT22;30869;51.188;6.556;2022-08-19T12:38:37;24.90;87.70
45108;DHT22;30869;51.188;6.556;2022-08-19T12:41:05;24.70;87.80
45108;DHT22;30869;51.188;6.556;2022-08-19T12:43:35;24.90;85.60
45108;DHT22;30869;51.188;6.556;2022-08-19T12:46:02;25.00;85.40
45108;DHT22;30869;51.188;6.556;2022-08-19T12:48:29;24.80;84.60
45108;DHT22;30869;51.188;6.556;2022-08-19T12:50:55;25.00;84.50
45108;DHT22;30869;51.188;6.556;2022-08-19T12:53:20;25.10;85.40
45108;DHT22;30869;51.188;6.556;2022-08-19T12:55:46;25.40;83.90
45108;DHT22;30869;51.188;6.556;2022-08-19T12:58:12;25.10;84.10
45108;DHT22;30869;51.188;6.556;2022-08-19T13:00:39;25.10;84.40
45108;DHT22;30869;51.188;6.556;2022-08-19T13:03:05;25.10;85.10
45108;DHT22;30869;51.188;6.556;2022-08-19T13:05:32;25.20;86.00
45108;DHT22;30869;51.188;6.556;2022-08-19T13:07:58;25.30;85.80
45108;DHT22;30869;51.188;6.556;2022-08-19T13:10:28;25.40;85.10
45108;DHT22;30869;51.188;6.556;2022-08-19T13:12:55;25.30;84.50
45108;DHT22;30869;51.188;6.556;2022-08-19T13:15:23;25.50;84.30
45108;DHT22;30869;51.188;6.556;2022-08-19T13:17:51;25.40;83.90
45108;DHT22;30869;51.188;6.556;2022-08-19T13:20:19;25.40;83.80
45108;DHT22;30869;51.188;6.556;2022-08-19T13:22:45;25.60;83.10
45108;DHT22;30869;51.188;6.556;2022-08-19T13:25:12;25.50;83.60
45108;DHT22;30869;51.188;6.556;2022-08-19T13:27:38;25.40;82.60
45108;DHT22;30869;51.188;6.556;2022-08-19T13:30:07;25.50;82.90
45108;DHT22;30869;51.188;6.556;2022-08-19T13:32:52;25.50;82.40
45108;DHT22;30869;51.188;6.556;2022-08-19T13:35:37;25.60;82.10
45108;DHT22;30869;51.188;6.556;2022-08-19T13:38:03;25.60;81.10
45108;DHT22;30869;51.188;6.556;2022-08-19T13:40:31;25.70;80.40
45108;DHT22;30869;51.188;6.556;2022-08-19T13:42:59;25.80;80.20
45108;DHT22;30869;51.188;6.556;2022-08-19T18:13:28;24.40;94.00
45108;DHT22;30869;51.188;6.556;2022-08-19T18:15:55;24.40;94.30
45108;DHT22;30869;51.188;6.556;2022-08-19T18:18:23;24.30;94.40
45108;DHT22;30869;51.188;6.556;2022-08-19T18:20:50;24.30;94.30
45108;DHT22;30869;51.188;6.556;2022-08-19T18:23:16;24.40;94.40
45108;DHT22;30869;51.188;6.556;2022-08-19T18:25:42;24.60;94.30
45108;DHT22;30869;51.188;6.556;2022-08-19T18:28:08;24.70;94.20
45108;DHT22;30869;51.188;6.556;2022-08-19T18:30:34;24.50;94.00
45108;DHT22;30869;51.188;6.556;2022-08-19T18:33:06;24.50;94.00
45108;DHT22;30869;51.188;6.556;2022-08-19T18:35:42;24.50;93.90
45108;DHT22;30869;51.188;6.556;2022-08-19T18:38:14;24.50;94.00
45108;DHT22;30869;51.188;6.556;2022-08-19T18:40:58;24.50;93.90
45108;DHT22;30869;51.188;6.556;2022-08-19T18:43:43;24.50;94.10
45108;DHT22;30869;51.188;6.556;2022-08-19T18:46:30;24.50;94.10
45108;DHT22;30869;51.188;6.556;2022-08-19T18:49:29;24.50;94.00
45108;DHT22;30869;51.188;6.556;2022-08-19T18:51:56;24.50;94.00
45108;DHT22;30869;51.188;6.556;2022-08-19T18:54:25;24.60;94.00
45108;DHT22;30869;51.188;6.556;2022-08-19T18:56:54;24.60;94.00
45108;DHT22;30869;51.188;6.556;2022-08-19T18:59:25;24.60;93.90
45108;DHT22;30869;51.188;6.556;2022-08-19T19:01:52;24.60;93.90
45108;DHT22;30869;51.188;6.556;2022-08-19T19:04:26;24.50;93.80
45108;DHT22;30869;51.188;6.556;2022-08-19T19:06:53;24.70;93.90
45108;DHT22;30869;51.188;6.556;2022-08-19T19:09:21;24.70;93.90
45108;DHT22;30869;51.188;6.556;2022-08-19T19:11:51;24.60;94.10
45108;DHT22;30869;51.188;6.556;2022-08-19T19:14:24;24.70;93.70
45108;DHT22;30869;51.188;6.556;2022-08-19T19:16:51;24.70;93.90
45108;DHT22;30869;51.188;6.556;2022-08-19T19:19:17;24.60;93.80
45108;DHT22;30869;51.188;6.556;2022-08-19T19:21:46;24.80;93.80
45108;DHT22;30869;51.188;6.556;2022-08-19T19:24:31;24.70;93.80
45108;DHT22;30869;51.188;6.556;2022-08-19T19:27:00;24.70;93.70
45108;DHT22;30869;51.188;6.556;2022-08-19T19:29:30;24.70;93.70
45108;DHT22;30869;51.188;6.556;2022-08-19T19:35:56;24.80;93.70
45108;DHT22;30869;51.188;6.556;2022-08-19T19:38:22;24.90;94.60
45108;DHT22;30869;51.188;6.556;2022-08-19T19:40:57;24.90;94.70
45108;DHT22;30869;51.188;6.556;2022-08-19T19:43:31;24.40;95.60
45108;DHT22;30869;51.188;6.556;2022-08-19T19:46:08;23.90;96.70
45108;DHT22;30869;51.188;6.556;2022-08-19T19:48:34;23.50;97.50
45108;DHT22;30869;51.188;6.556;2022-08-19T19:51:15;23.40;97.70
45108;DHT22;30869;51.188;6.556;2022-08-19T19:53:41;23.30;98.30
45108;DHT22;30869;51.188;6.556;2022-08-19T19:56:15;23.20;98.50
45108;DHT22;30869;51.188;6.556;2022-08-19T19:59:06;23.20;98.50
45108;DHT22;30869;51.188;6.556;2022-08-19T20:02:23;23.10;98.70
45108;DHT22;30869;51.188;6.556;2022-08-19T20:05:11;23.00;98.90
45108;DHT22;30869;51.188;6.556;2022-08-19T20:08:00;22.90;99.60
45108;DHT22;30869;51.188;6.556;2022-08-19T20:11:29;22.90;99.90
45108;DHT22;30869;51.188;6.556;2022-08-19T20:14:41;22.80;99.90
45108;DHT22;30869;51.188;6.556;2022-08-19T20:17:05;22.70;99.90
45108;DHT22;30869;51.188;6.556;2022-08-19T20:19:58;22.60;99.90
45108;DHT22;30869;51.188;6.556;2022-08-19T20:22:54;22.60;99.90
45108;DHT22;30869;51.188;6.556;2022-08-19T20:25:27;22.70;99.90
45108;DHT22;30869;51.188;6.556;2022-08-19T20:27:56;22.90;99.90
45108;DHT22;30869;51.188;6.556;2022-08-19T20:30:32;22.60;99.90
45108;DHT22;30869;51.188;6.556;2022-08-19T20:33:01;22.50;99.90
45108;DHT22;30869;51.188;6.556;2022-08-19T20:35:49;22.60;99.90
45108;DHT22;30869;51.188;6.556;2022-08-19T20:38:17;22.70;99.90
45108;DHT22;30869;51.188;6.556;2022-08-19T20:41:04;22.60;99.90
45108;DHT22;30869;51.188;6.556;2022-08-19T20:43:43;22.70;99.90
45108;DHT22;30869;51.188;6.556;2022-08-19T20:46:09;22.70;99.90
45108;DHT22;30869;51.188;6.556;2022-08-19T20:48:37;22.60;99.90
45108;DHT22;30869;51.188;6.556;2022-08-19T20:51:16;22.70;99.90
45108;DHT22;30869;51.188;6.556;2022-08-19T20:53:44;22.50;99.90
45108;DHT22;30869;51.188;6.556;2022-08-19T20:56:21;22.50;99.90
45108;DHT22;30869;51.188;6.556;2022-08-19T20:59:13;22.50;99.90
45108;DHT22;30869;51.188;6.556;2022-08-19T21:01:41;22.50;99.90
45108;DHT22;30869;51.188;6.556;2022-08-19T21:04:13;22.50;99.90
45108;DHT22;30869;51.188;6.556;2022-08-19T21:06:48;22.50;99.90
45108;DHT22;30869;51.188;6.556;2022-08-19T21:09:17;22.60;99.90
45108;DHT22;30869;51.188;6.556;2022-08-19T21:11:43;22.60;99.90
45108;DHT22;30869;51.188;6.556;2022-08-19T21:14:09;22.70;99.90
45108;DHT22;30869;51.188;6.556;2022-08-19T21:16:39;22.80;99.90
45108;DHT22;30869;51.188;6.556;2022-08-19T21:19:15;22.80;99.90
45108;DHT22;30869;51.188;6.556;2022-08-19T21:21:42;22.60;99.90
45108;DHT22;30869;51.188;6.556;2022-08-19T21:24:39;22.60;99.90
45108;DHT22;30869;51.188;6.556;2022-08-19T21:27:07;22.60;99.90
45108;DHT22;30869;51.188;6.556;2022-08-19T21:29:35;22.60;99.90
45108;DHT22;30869;51.188;6.556;2022-08-19T21:32:12;22.50;99.90
45108;DHT22;30869;51.188;6.556;2022-08-19T21:35:08;22.40;99.90
45108;DHT22;30869;51.188;6.556;2022-08-19T21:37:39;22.00;99.90
45108;DHT22;30869;51.188;6.556;2022-08-19T21:40:08;22.40;99.90
45108;DHT22;30869;51.188;6.556;2022-08-19T21:42:34;22.50;99.90
45108;DHT22;30869;51.188;6.556;2022-08-19T21:45:00;22.50;99.90
45108;DHT22;30869;51.188;6.556;2022-08-19T21:47:40;22.70;99.90
45108;DHT22;30869;51.188;6.556;2022-08-19T21:50:07;22.50;99.90
45108;DHT22;30869;51.188;6.556;2022-08-19T21:52:33;22.50;99.90
45108;DHT22;30869;51.188;6.556;2022-08-19T22:12:05;23.00;99.90
